sensor_id;sensor_type;location;lat;lon;timestamp;pressure;altitude;pressure_sealevel;temperature;humidity
18275;BME280;19470;49.322;7.218;2024-03-08T00:00:58;98513.66;;;9.17;73.05
18275;BME280;19470;49.322;7.218;2024-03-08T00:03:24;98520.84;;;9.50;71.12
18275;BME280;19470;49.322;7.218;2024-03-08T00:05:52;98521.88;;;9.49;71.42
18275;BME280;19470;49.322;7.218;2024-03-08T00:08:18;98518.31;;;9.27;71.83
18275;BME280;19470;49.322;7.218;2024-03-08T00:10:44;98517.81;;;9.13;72.76
18275;BME280;19470;49.322;7.218;2024-03-08T00:13:11;98515.66;;;9.27;72.39
18275;BME280;19470;49.322;7.218;2024-03-08T00:15:37;98503.97;;;9.51;70.41
18275;BME280;19470;49.322;7.218;2024-03-08T00:18:05;98505.41;;;9.42;71.16
18275;BME280;19470;49.322;7.218;2024-03-08T00:20:32;98503.31;;;9.44;70.75
18275;BME280;19470;49.322;7.218;2024-03-08T00:22:58;98500.75;;;9.49;70.97
18275;BME280;19470;49.322;7.218;2024-03-08T00:25:25;98505.47;;;9.47;70.48
18275;BME280;19470;49.322;7.218;2024-03-08T00:27:52;98497.88;;;9.67;69.91
18275;BME280;19470;49.322;7.218;2024-03-08T00:30:21;98494.31;;;9.28;70.28
18275;BME280;19470;49.322;7.218;2024-03-08T00:32:48;98489.59;;;9.02;71.47
18275;BME280;19470;49.322;7.218;2024-03-08T00:35:16;98489.81;;;9.29;70.71
18275;BME280;19470;49.322;7.218;2024-03-08T00:37:43;98491.44;;;9.30;70.91
18275;BME280;19470;49.322;7.218;2024-03-08T00:40:12;98487.44;;;9.44;71.11
18275;BME280;19470;49.322;7.218;2024-03-08T00:42:39;98495.06;;;9.12;71.60
18275;BME280;19470;49.322;7.218;2024-03-08T00:45:06;98479.00;;;9.30;70.99
18275;BME280;19470;49.322;7.218;2024-03-08T00:47:35;98477.94;;;9.14;71.95
18275;BME280;19470;49.322;7.218;2024-03-08T00:50:02;98478.78;;;9.32;70.38
18275;BME280;19470;49.322;7.218;2024-03-08T00:52:31;98480.78;;;8.96;71.78
18275;BME280;19470;49.322;7.218;2024-03-08T00:54:59;98476.63;;;9.00;71.51
18275;BME280;19470;49.322;7.218;2024-03-08T00:57:27;98473.97;;;8.72;72.07
18275;BME280;19470;49.322;7.218;2024-03-08T00:59:53;98474.94;;;8.94;70.99
18275;BME280;19470;49.322;7.218;2024-03-08T01:02:20;98468.47;;;8.73;72.24
18275;BME280;19470;49.322;7.218;2024-03-08T01:04:48;98468.91;;;8.82;71.50
18275;BME280;19470;49.322;7.218;2024-03-08T01:07:15;98459.84;;;8.78;71.71
18275;BME280;19470;49.322;7.218;2024-03-08T01:09:43;98455.97;;;8.97;71.03
18275;BME280;19470;49.322;7.218;2024-03-08T01:12:09;98452.78;;;8.66;71.88
18275;BME280;19470;49.322;7.218;2024-03-08T01:14:36;98452.25;;;8.81;71.43
18275;BME280;19470;49.322;7.218;2024-03-08T01:17:02;98454.31;;;9.08;71.16
18275;BME280;19470;49.322;7.218;2024-03-08T01:19:29;98442.06;;;9.02;71.62
18275;BME280;19470;49.322;7.218;2024-03-08T01:21:57;98455.41;;;9.40;70.69
18275;BME280;19470;49.322;7.218;2024-03-08T01:24:24;98441.81;;;9.32;71.40
18275;BME280;19470;49.322;7.218;2024-03-08T01:26:52;98437.91;;;9.06;71.58
18275;BME280;19470;49.322;7.218;2024-03-08T01:29:18;98436.41;;;9.10;71.32
18275;BME280;19470;49.322;7.218;2024-03-08T01:31:45;98427.16;;;8.95;71.94
18275;BME280;19470;49.322;7.218;2024-03-08T01:34:11;98429.19;;;9.05;71.73
18275;BME280;19470;49.322;7.218;2024-03-08T01:36:38;98436.25;;;8.88;72.86
18275;BME280;19470;49.322;7.218;2024-03-08T01:39:04;98427.63;;;9.38;71.52
18275;BME280;19470;49.322;7.218;2024-03-08T01:41:33;98418.25;;;9.47;70.71
18275;BME280;19470;49.322;7.218;2024-03-08T01:44:02;98411.69;;;9.66;69.47
18275;BME280;19470;49.322;7.218;2024-03-08T01:46:29;98408.94;;;9.78;68.87
18275;BME280;19470;49.322;7.218;2024-03-08T01:48:56;98406.72;;;9.53;69.84
18275;BME280;19470;49.322;7.218;2024-03-08T01:51:23;98409.94;;;9.55;70.55
18275;BME280;19470;49.322;7.218;2024-03-08T01:53:50;98407.44;;;9.65;69.73
18275;BME280;19470;49.322;7.218;2024-03-08T01:56:17;98405.09;;;9.35;70.68
18275;BME280;19470;49.322;7.218;2024-03-08T01:58:44;98395.97;;;9.09;71.21
18275;BME280;19470;49.322;7.218;2024-03-08T02:01:13;98384.91;;;9.63;70.25
18275;BME280;19470;49.322;7.218;2024-03-08T02:03:40;98383.50;;;9.55;69.67
18275;BME280;19470;49.322;7.218;2024-03-08T02:06:27;98377.75;;;9.80;68.58
18275;BME280;19470;49.322;7.218;2024-03-08T02:08:54;98377.56;;;9.48;69.31
18275;BME280;19470;49.322;7.218;2024-03-08T02:11:20;98374.78;;;9.77;68.96
18275;BME280;19470;49.322;7.218;2024-03-08T02:13:47;98375.53;;;9.72;68.77
18275;BME280;19470;49.322;7.218;2024-03-08T02:16:20;98372.09;;;9.55;68.54
18275;BME280;19470;49.322;7.218;2024-03-08T02:18:46;98366.47;;;9.85;68.34
18275;BME280;19470;49.322;7.218;2024-03-08T02:21:16;98368.19;;;9.57;69.19
18275;BME280;19470;49.322;7.218;2024-03-08T02:23:43;98369.22;;;9.56;68.93
18275;BME280;19470;49.322;7.218;2024-03-08T02:26:10;98364.94;;;9.72;68.24
18275;BME280;19470;49.322;7.218;2024-03-08T02:28:37;98363.44;;;9.59;68.65
18275;BME280;19470;49.322;7.218;2024-03-08T02:31:04;98362.09;;;9.06;70.98
18275;BME280;19470;49.322;7.218;2024-03-08T02:33:33;98364.81;;;9.11;71.70
18275;BME280;19470;49.322;7.218;2024-03-08T02:36:00;98355.00;;;9.24;70.78
18275;BME280;19470;49.322;7.218;2024-03-08T02:38:28;98355.47;;;9.37;70.26
18275;BME280;19470;49.322;7.218;2024-03-08T02:40:54;98357.84;;;8.88;72.04
18275;BME280;19470;49.322;7.218;2024-03-08T02:43:21;98355.38;;;9.15;71.42
18275;BME280;19470;49.322;7.218;2024-03-08T02:45:49;98350.69;;;9.17;71.39
18275;BME280;19470;49.322;7.218;2024-03-08T02:48:18;98347.78;;;9.02;71.49
18275;BME280;19470;49.322;7.218;2024-03-08T02:50:45;98348.50;;;9.14;71.34
18275;BME280;19470;49.322;7.218;2024-03-08T02:53:12;98346.56;;;8.93;71.67
18275;BME280;19470;49.322;7.218;2024-03-08T02:55:40;98342.84;;;9.23;70.52
18275;BME280;19470;49.322;7.218;2024-03-08T02:58:07;98334.66;;;9.07;71.29
18275;BME280;19470;49.322;7.218;2024-03-08T03:00:35;98330.63;;;9.21;70.29
18275;BME280;19470;49.322;7.218;2024-03-08T03:03:02;98341.78;;;9.24;70.54
18275;BME280;19470;49.322;7.218;2024-03-08T03:05:29;98331.44;;;9.39;69.59
18275;BME280;19470;49.322;7.218;2024-03-08T03:07:56;98324.25;;;9.17;70.27
18275;BME280;19470;49.322;7.218;2024-03-08T03:10:23;98329.19;;;8.97;71.55
18275;BME280;19470;49.322;7.218;2024-03-08T03:12:51;98332.09;;;9.29;69.82
18275;BME280;19470;49.322;7.218;2024-03-08T03:15:18;98332.91;;;9.13;70.59
18275;BME280;19470;49.322;7.218;2024-03-08T03:17:46;98327.13;;;8.99;70.46
18275;BME280;19470;49.322;7.218;2024-03-08T03:20:14;98323.75;;;9.20;69.22
18275;BME280;19470;49.322;7.218;2024-03-08T03:22:48;98325.94;;;9.24;69.74
18275;BME280;19470;49.322;7.218;2024-03-08T03:25:17;98327.44;;;9.19;70.06
18275;BME280;19470;49.322;7.218;2024-03-08T03:27:48;98315.44;;;9.29;69.22
18275;BME280;19470;49.322;7.218;2024-03-08T03:30:16;98315.50;;;9.34;69.21
18275;BME280;19470;49.322;7.218;2024-03-08T03:32:47;98317.06;;;9.13;69.45
18275;BME280;19470;49.322;7.218;2024-03-08T03:35:14;98323.34;;;9.12;70.02
18275;BME280;19470;49.322;7.218;2024-03-08T03:37:41;98324.81;;;9.19;69.04
18275;BME280;19470;49.322;7.218;2024-03-08T03:40:11;98306.78;;;8.83;70.46
18275;BME280;19470;49.322;7.218;2024-03-08T03:42:38;98317.50;;;8.93;70.72
18275;BME280;19470;49.322;7.218;2024-03-08T03:45:05;98314.00;;;9.04;69.87
18275;BME280;19470;49.322;7.218;2024-03-08T03:47:33;98304.09;;;8.94;69.29
18275;BME280;19470;49.322;7.218;2024-03-08T03:50:00;98308.16;;;8.85;69.81
18275;BME280;19470;49.322;7.218;2024-03-08T03:52:28;98307.75;;;8.93;70.15
18275;BME280;19470;49.322;7.218;2024-03-08T03:54:54;98301.97;;;9.30;68.86
18275;BME280;19470;49.322;7.218;2024-03-08T03:57:22;98309.34;;;9.11;68.49
18275;BME280;19470;49.322;7.218;2024-03-08T03:59:48;98302.94;;;9.07;69.03
18275;BME280;19470;49.322;7.218;2024-03-08T04:02:16;98297.19;;;9.10;69.07
18275;BME280;19470;49.322;7.218;2024-03-08T04:04:44;98298.00;;;8.94;69.05
18275;BME280;19470;49.322;7.218;2024-03-08T04:07:10;98297.03;;;9.00;69.54
18275;BME280;19470;49.322;7.218;2024-03-08T04:09:37;98300.53;;;8.89;69.93
18275;BME280;19470;49.322;7.218;2024-03-08T04:12:04;98297.97;;;8.60;70.40
18275;BME280;19470;49.322;7.218;2024-03-08T04:14:31;98304.56;;;8.91;69.53
18275;BME280;19470;49.322;7.218;2024-03-08T04:16:57;98300.97;;;8.81;70.29
18275;BME280;19470;49.322;7.218;2024-03-08T04:19:23;98304.63;;;8.80;69.97
18275;BME280;19470;49.322;7.218;2024-03-08T04:21:52;98301.34;;;8.73;69.99
18275;BME280;19470;49.322;7.218;2024-03-08T04:24:19;98293.63;;;8.54;70.84
18275;BME280;19470;49.322;7.218;2024-03-08T04:26:46;98297.50;;;8.97;69.00
18275;BME280;19470;49.322;7.218;2024-03-08T04:29:12;98301.91;;;8.91;68.91
18275;BME280;19470;49.322;7.218;2024-03-08T04:31:39;98299.69;;;9.00;68.95
18275;BME280;19470;49.322;7.218;2024-03-08T04:34:06;98300.31;;;8.74;68.84
18275;BME280;19470;49.322;7.218;2024-03-08T04:36:33;98296.56;;;8.86;68.86
18275;BME280;19470;49.322;7.218;2024-03-08T04:39:02;98294.81;;;8.75;69.69
18275;BME280;19470;49.322;7.218;2024-03-08T04:41:30;98287.91;;;8.57;70.30
18275;BME280;19470;49.322;7.218;2024-03-08T04:43:56;98294.31;;;8.61;69.85
18275;BME280;19470;49.322;7.218;2024-03-08T04:46:23;98291.00;;;8.54;70.58
18275;BME280;19470;49.322;7.218;2024-03-08T04:48:50;98293.81;;;8.64;70.17
18275;BME280;19470;49.322;7.218;2024-03-08T04:51:16;98287.09;;;8.57;70.36
18275;BME280;19470;49.322;7.218;2024-03-08T04:53:44;98287.56;;;8.54;70.13
18275;BME280;19470;49.322;7.218;2024-03-08T04:56:12;98289.91;;;8.10;72.13
18275;BME280;19470;49.322;7.218;2024-03-08T04:58:39;98279.38;;;8.38;71.08
18275;BME280;19470;49.322;7.218;2024-03-08T05:01:05;98283.66;;;8.56;70.68
18275;BME280;19470;49.322;7.218;2024-03-08T05:03:35;98280.69;;;8.53;69.94
18275;BME280;19470;49.322;7.218;2024-03-08T05:06:02;98285.81;;;8.59;68.99
18275;BME280;19470;49.322;7.218;2024-03-08T05:08:28;98283.25;;;8.64;69.36
18275;BME280;19470;49.322;7.218;2024-03-08T05:10:55;98278.66;;;8.14;72.00
18275;BME280;19470;49.322;7.218;2024-03-08T05:13:23;98289.25;;;8.31;70.42
18275;BME280;19470;49.322;7.218;2024-03-08T05:15:50;98280.97;;;8.39;70.44
18275;BME280;19470;49.322;7.218;2024-03-08T05:18:17;98275.41;;;8.53;69.21
18275;BME280;19470;49.322;7.218;2024-03-08T05:20:43;98278.09;;;8.41;69.12
18275;BME280;19470;49.322;7.218;2024-03-08T05:23:10;98275.63;;;8.51;69.52
18275;BME280;19470;49.322;7.218;2024-03-08T05:25:37;98280.63;;;8.07;71.02
18275;BME280;19470;49.322;7.218;2024-03-08T05:28:04;98278.34;;;8.39;70.20
18275;BME280;19470;49.322;7.218;2024-03-08T05:30:32;98279.88;;;8.24;73.87
18275;BME280;19470;49.322;7.218;2024-03-08T05:32:58;98278.84;;;8.25;69.93
18275;BME280;19470;49.322;7.218;2024-03-08T05:35:25;98273.94;;;8.45;70.27
18275;BME280;19470;49.322;7.218;2024-03-08T05:37:52;98278.09;;;8.41;69.72
18275;BME280;19470;49.322;7.218;2024-03-08T05:40:18;98279.38;;;8.38;69.86
18275;BME280;19470;49.322;7.218;2024-03-08T05:42:45;98276.03;;;8.60;69.10
18275;BME280;19470;49.322;7.218;2024-03-08T05:45:11;98268.03;;;8.38;70.55
18275;BME280;19470;49.322;7.218;2024-03-08T05:47:41;98271.41;;;8.50;68.64
18275;BME280;19470;49.322;7.218;2024-03-08T05:50:08;98263.63;;;8.43;69.29
18275;BME280;19470;49.322;7.218;2024-03-08T05:52:36;98277.91;;;8.76;67.98
18275;BME280;19470;49.322;7.218;2024-03-08T05:55:04;98278.13;;;8.75;67.56
18275;BME280;19470;49.322;7.218;2024-03-08T05:57:56;98273.56;;;8.53;68.01
18275;BME280;19470;49.322;7.218;2024-03-08T06:00:23;98274.19;;;8.32;69.07
18275;BME280;19470;49.322;7.218;2024-03-08T06:02:51;98271.72;;;8.54;67.88
18275;BME280;19470;49.322;7.218;2024-03-08T06:05:17;98272.69;;;8.64;68.08
18275;BME280;19470;49.322;7.218;2024-03-08T06:07:44;98272.34;;;8.44;68.59
18275;BME280;19470;49.322;7.218;2024-03-08T06:10:11;98266.63;;;8.47;68.30
18275;BME280;19470;49.322;7.218;2024-03-08T06:12:38;98270.94;;;8.53;67.53
18275;BME280;19470;49.322;7.218;2024-03-08T06:15:07;98272.06;;;8.29;68.31
18275;BME280;19470;49.322;7.218;2024-03-08T06:17:34;98268.75;;;7.93;70.65
18275;BME280;19470;49.322;7.218;2024-03-08T06:20:01;98270.34;;;8.23;68.56
18275;BME280;19470;49.322;7.218;2024-03-08T06:22:29;98268.53;;;8.68;67.24
18275;BME280;19470;49.322;7.218;2024-03-08T06:24:56;98269.72;;;8.44;67.94
18275;BME280;19470;49.322;7.218;2024-03-08T06:27:22;98266.06;;;8.33;68.29
18275;BME280;19470;49.322;7.218;2024-03-08T06:29:48;98266.78;;;8.00;70.64
18275;BME280;19470;49.322;7.218;2024-03-08T06:32:15;98262.25;;;8.41;68.75
18275;BME280;19470;49.322;7.218;2024-03-08T06:34:41;98256.31;;;8.34;68.82
18275;BME280;19470;49.322;7.218;2024-03-08T06:37:09;98258.56;;;7.85;69.37
18275;BME280;19470;49.322;7.218;2024-03-08T06:39:36;98256.75;;;8.14;68.58
18275;BME280;19470;49.322;7.218;2024-03-08T06:42:02;98255.91;;;8.70;67.46
18275;BME280;19470;49.322;7.218;2024-03-08T06:44:30;98253.50;;;8.52;67.95
18275;BME280;19470;49.322;7.218;2024-03-08T06:46:56;98258.38;;;8.60;67.91
18275;BME280;19470;49.322;7.218;2024-03-08T06:49:23;98254.22;;;8.64;66.67
18275;BME280;19470;49.322;7.218;2024-03-08T06:51:52;98256.28;;;8.79;66.52
18275;BME280;19470;49.322;7.218;2024-03-08T06:54:19;98253.81;;;8.73;65.79
18275;BME280;19470;49.322;7.218;2024-03-08T06:56:46;98251.59;;;8.36;68.19
18275;BME280;19470;49.322;7.218;2024-03-08T06:59:13;98249.25;;;8.23;68.11
18275;BME280;19470;49.322;7.218;2024-03-08T07:01:39;98253.59;;;8.57;67.21
18275;BME280;19470;49.322;7.218;2024-03-08T07:04:06;98253.00;;;8.55;66.96
18275;BME280;19470;49.322;7.218;2024-03-08T07:06:33;98261.97;;;8.26;68.01
18275;BME280;19470;49.322;7.218;2024-03-08T07:08:59;98257.47;;;8.09;68.86
18275;BME280;19470;49.322;7.218;2024-03-08T07:11:27;98244.66;;;8.47;67.16
18275;BME280;19470;49.322;7.218;2024-03-08T07:13:54;98251.72;;;8.75;66.99
18275;BME280;19470;49.322;7.218;2024-03-08T07:16:20;98248.59;;;8.61;66.67
18275;BME280;19470;49.322;7.218;2024-03-08T07:18:47;98238.59;;;8.80;66.63
18275;BME280;19470;49.322;7.218;2024-03-08T07:21:17;98236.91;;;9.07;65.81
18275;BME280;19470;49.322;7.218;2024-03-08T07:23:44;98244.53;;;8.87;66.14
18275;BME280;19470;49.322;7.218;2024-03-08T07:26:29;98232.53;;;8.96;66.14
18275;BME280;19470;49.322;7.218;2024-03-08T07:28:56;98240.97;;;8.76;66.74
18275;BME280;19470;49.322;7.218;2024-03-08T07:31:24;98235.41;;;8.44;67.63
18275;BME280;19470;49.322;7.218;2024-03-08T07:34:00;98235.38;;;9.11;65.40
18275;BME280;19470;49.322;7.218;2024-03-08T07:36:26;98244.06;;;8.90;66.12
18275;BME280;19470;49.322;7.218;2024-03-08T07:38:53;98236.94;;;9.46;64.05
18275;BME280;19470;49.322;7.218;2024-03-08T07:41:19;98240.97;;;9.32;64.55
18275;BME280;19470;49.322;7.218;2024-03-08T07:43:47;98228.31;;;9.34;64.81
18275;BME280;19470;49.322;7.218;2024-03-08T07:46:14;98227.31;;;9.40;65.27
18275;BME280;19470;49.322;7.218;2024-03-08T07:48:43;98222.22;;;9.33;65.39
18275;BME280;19470;49.322;7.218;2024-03-08T07:51:10;98228.03;;;9.13;65.21
18275;BME280;19470;49.322;7.218;2024-03-08T07:53:37;98217.31;;;9.03;65.28
18275;BME280;19470;49.322;7.218;2024-03-08T07:56:06;98226.13;;;9.09;65.62
18275;BME280;19470;49.322;7.218;2024-03-08T07:58:34;98214.41;;;9.21;65.36
18275;BME280;19470;49.322;7.218;2024-03-08T08:01:03;98217.59;;;9.24;64.45
18275;BME280;19470;49.322;7.218;2024-03-08T08:03:29;98213.22;;;10.00;63.46
18275;BME280;19470;49.322;7.218;2024-03-08T08:05:56;98205.97;;;9.90;62.40
18275;BME280;19470;49.322;7.218;2024-03-08T08:08:23;98214.59;;;10.03;61.21
18275;BME280;19470;49.322;7.218;2024-03-08T08:10:51;98210.50;;;9.46;63.35
18275;BME280;19470;49.322;7.218;2024-03-08T08:13:17;98205.97;;;9.90;62.42
18275;BME280;19470;49.322;7.218;2024-03-08T08:15:44;98208.88;;;10.16;62.07
18275;BME280;19470;49.322;7.218;2024-03-08T08:18:12;98216.59;;;10.44;61.42
18275;BME280;19470;49.322;7.218;2024-03-08T08:20:39;98211.03;;;10.78;59.95
18275;BME280;19470;49.322;7.218;2024-03-08T08:23:05;98210.41;;;11.03;60.56
18275;BME280;19470;49.322;7.218;2024-03-08T08:25:32;98204.91;;;11.67;58.92
18275;BME280;19470;49.322;7.218;2024-03-08T08:27:59;98206.59;;;11.31;58.98
18275;BME280;19470;49.322;7.218;2024-03-08T08:30:27;98202.78;;;11.74;57.45
18275;BME280;19470;49.322;7.218;2024-03-08T08:32:54;98193.59;;;11.30;58.13
18275;BME280;19470;49.322;7.218;2024-03-08T08:35:27;98195.97;;;10.84;58.52
18275;BME280;19470;49.322;7.218;2024-03-08T08:37:54;98201.16;;;11.06;59.15
18275;BME280;19470;49.322;7.218;2024-03-08T08:40:20;98205.94;;;11.09;58.73
18275;BME280;19470;49.322;7.218;2024-03-08T08:42:47;98193.75;;;10.70;59.31
18275;BME280;19470;49.322;7.218;2024-03-08T08:45:14;98180.78;;;11.11;58.59
18275;BME280;19470;49.322;7.218;2024-03-08T08:47:43;98182.00;;;11.46;57.78
18275;BME280;19470;49.322;7.218;2024-03-08T08:50:10;98180.09;;;12.60;54.05
18275;BME280;19470;49.322;7.218;2024-03-08T08:52:39;98170.25;;;12.81;54.20
18275;BME280;19470;49.322;7.218;2024-03-08T08:55:06;98174.16;;;13.29;52.81
18275;BME280;19470;49.322;7.218;2024-03-08T08:57:32;98169.38;;;13.11;53.25
18275;BME280;19470;49.322;7.218;2024-03-08T09:00:00;98171.63;;;12.48;54.20
18275;BME280;19470;49.322;7.218;2024-03-08T09:02:26;98171.63;;;12.53;53.03
18275;BME280;19470;49.322;7.218;2024-03-08T09:04:53;98158.81;;;12.91;52.17
18275;BME280;19470;49.322;7.218;2024-03-08T09:07:20;98156.25;;;13.45;51.92
18275;BME280;19470;49.322;7.218;2024-03-08T09:09:48;98163.44;;;13.50;51.35
18275;BME280;19470;49.322;7.218;2024-03-08T09:12:15;98158.31;;;12.22;53.65
18275;BME280;19470;49.322;7.218;2024-03-08T09:14:42;98146.47;;;13.36;52.49
18275;BME280;19470;49.322;7.218;2024-03-08T09:17:08;98150.19;;;14.28;49.78
18275;BME280;19470;49.322;7.218;2024-03-08T09:19:35;98138.53;;;14.19;50.00
18275;BME280;19470;49.322;7.218;2024-03-08T09:22:02;98150.34;;;14.08;49.12
18275;BME280;19470;49.322;7.218;2024-03-08T09:24:29;98150.19;;;13.35;52.14
18275;BME280;19470;49.322;7.218;2024-03-08T09:26:57;98145.31;;;14.99;49.12
18275;BME280;19470;49.322;7.218;2024-03-08T09:29:24;98133.06;;;15.22;47.97
18275;BME280;19470;49.322;7.218;2024-03-08T09:31:51;98138.00;;;14.22;48.82
18275;BME280;19470;49.322;7.218;2024-03-08T09:34:17;98135.28;;;14.62;48.77
18275;BME280;19470;49.322;7.218;2024-03-08T09:36:44;98135.34;;;14.22;50.54
18275;BME280;19470;49.322;7.218;2024-03-08T09:39:11;98130.28;;;14.55;48.71
18275;BME280;19470;49.322;7.218;2024-03-08T09:41:42;98121.72;;;15.54;46.84
18275;BME280;19470;49.322;7.218;2024-03-08T09:44:10;98127.53;;;15.99;46.08
18275;BME280;19470;49.322;7.218;2024-03-08T09:46:36;98115.94;;;16.55;43.95
18275;BME280;19470;49.322;7.218;2024-03-08T09:49:03;98110.28;;;15.05;47.24
18275;BME280;19470;49.322;7.218;2024-03-08T09:51:33;98102.25;;;17.80;42.65
18275;BME280;19470;49.322;7.218;2024-03-08T09:54:00;98102.41;;;17.98;42.23
18275;BME280;19470;49.322;7.218;2024-03-08T09:56:32;98098.06;;;18.33;40.95
18275;BME280;19470;49.322;7.218;2024-03-08T09:58:59;98099.59;;;17.67;42.64
18275;BME280;19470;49.322;7.218;2024-03-08T10:01:59;98090.94;;;15.80;45.41
18275;BME280;19470;49.322;7.218;2024-03-08T10:04:28;98087.06;;;17.12;42.82
18275;BME280;19470;49.322;7.218;2024-03-08T10:06:57;98089.56;;;16.34;44.67
18275;BME280;19470;49.322;7.218;2024-03-08T10:09:24;98085.69;;;17.28;43.23
18275;BME280;19470;49.322;7.218;2024-03-08T10:11:53;98081.75;;;16.38;44.89
18275;BME280;19470;49.322;7.218;2024-03-08T10:14:21;98074.78;;;15.91;45.61
18275;BME280;19470;49.322;7.218;2024-03-08T10:16:47;98069.22;;;18.07;42.03
18275;BME280;19470;49.322;7.218;2024-03-08T10:19:15;98069.06;;;16.90;42.45
18275;BME280;19470;49.322;7.218;2024-03-08T10:21:48;98061.09;;;16.44;44.42
18275;BME280;19470;49.322;7.218;2024-03-08T10:24:14;98071.03;;;16.24;45.22
18275;BME280;19470;49.322;7.218;2024-03-08T10:26:41;98064.28;;;17.28;42.86
18275;BME280;19470;49.322;7.218;2024-03-08T10:29:08;98062.97;;;17.40;43.49
18275;BME280;19470;49.322;7.218;2024-03-08T10:31:35;98068.63;;;19.21;40.48
18275;BME280;19470;49.322;7.218;2024-03-08T10:34:02;98059.69;;;18.86;40.64
18275;BME280;19470;49.322;7.218;2024-03-08T10:36:31;98061.44;;;16.23;43.46
18275;BME280;19470;49.322;7.218;2024-03-08T10:39:01;98054.59;;;17.05;42.49
18275;BME280;19470;49.322;7.218;2024-03-08T10:41:30;98058.91;;;17.42;43.15
18275;BME280;19470;49.322;7.218;2024-03-08T10:44:10;98058.31;;;18.04;42.18
18275;BME280;19470;49.322;7.218;2024-03-08T10:46:50;98056.25;;;18.63;40.60
18275;BME280;19470;49.322;7.218;2024-03-08T10:49:30;98055.84;;;16.52;43.25
18275;BME280;19470;49.322;7.218;2024-03-08T10:52:02;98041.03;;;20.07;39.16
18275;BME280;19470;49.322;7.218;2024-03-08T10:54:29;98041.84;;;19.38;39.83
18275;BME280;19470;49.322;7.218;2024-03-08T10:56:57;98037.97;;;19.05;40.28
18275;BME280;19470;49.322;7.218;2024-03-08T10:59:26;98041.03;;;19.29;40.11
18275;BME280;19470;49.322;7.218;2024-03-08T11:01:53;98034.91;;;20.92;37.80
18275;BME280;19470;49.322;7.218;2024-03-08T11:04:20;98036.00;;;22.37;35.39
18275;BME280;19470;49.322;7.218;2024-03-08T11:06:50;98028.09;;;19.66;38.10
18275;BME280;19470;49.322;7.218;2024-03-08T11:09:29;98027.00;;;20.57;37.10
18275;BME280;19470;49.322;7.218;2024-03-08T11:12:21;98020.69;;;21.42;37.02
18275;BME280;19470;49.322;7.218;2024-03-08T11:14:51;98022.09;;;23.21;34.44
18275;BME280;19470;49.322;7.218;2024-03-08T11:17:21;98013.53;;;23.59;33.64
18275;BME280;19470;49.322;7.218;2024-03-08T11:19:49;98026.06;;;22.17;35.05
18275;BME280;19470;49.322;7.218;2024-03-08T11:22:21;98018.63;;;21.39;35.97
18275;BME280;19470;49.322;7.218;2024-03-08T11:24:51;98010.31;;;20.73;37.13
18275;BME280;19470;49.322;7.218;2024-03-08T11:27:17;98007.50;;;18.92;39.84
18275;BME280;19470;49.322;7.218;2024-03-08T11:29:59;98002.47;;;21.18;36.11
18275;BME280;19470;49.322;7.218;2024-03-08T11:32:28;97998.53;;;21.90;35.44
18275;BME280;19470;49.322;7.218;2024-03-08T11:34:55;97999.84;;;20.80;36.69
18275;BME280;19470;49.322;7.218;2024-03-08T11:37:22;97988.75;;;21.32;36.30
18275;BME280;19470;49.322;7.218;2024-03-08T11:39:52;97981.28;;;20.02;37.94
18275;BME280;19470;49.322;7.218;2024-03-08T11:42:24;97979.50;;;22.08;35.45
18275;BME280;19470;49.322;7.218;2024-03-08T11:44:52;97977.91;;;23.97;33.08
18275;BME280;19470;49.322;7.218;2024-03-08T11:47:19;97979.75;;;19.57;38.84
18275;BME280;19470;49.322;7.218;2024-03-08T11:49:45;97975.72;;;21.55;36.18
18275;BME280;19470;49.322;7.218;2024-03-08T11:52:14;97972.06;;;21.92;34.79
18275;BME280;19470;49.322;7.218;2024-03-08T11:54:40;97966.50;;;24.36;32.11
18275;BME280;19470;49.322;7.218;2024-03-08T11:57:08;97957.13;;;23.86;32.39
18275;BME280;19470;49.322;7.218;2024-03-08T11:59:35;97951.59;;;25.09;31.16
18275;BME280;19470;49.322;7.218;2024-03-08T12:02:03;97944.41;;;25.01;30.93
18275;BME280;19470;49.322;7.218;2024-03-08T12:04:30;97955.81;;;24.90;31.01
18275;BME280;19470;49.322;7.218;2024-03-08T12:06:59;97953.50;;;21.91;34.45
18275;BME280;19470;49.322;7.218;2024-03-08T12:09:26;97947.69;;;23.52;33.07
18275;BME280;19470;49.322;7.218;2024-03-08T12:11:52;97952.88;;;24.32;31.83
18275;BME280;19470;49.322;7.218;2024-03-08T12:14:20;97952.41;;;22.04;34.50
18275;BME280;19470;49.322;7.218;2024-03-08T12:16:47;97929.88;;;24.38;31.39
18275;BME280;19470;49.322;7.218;2024-03-08T12:19:14;97932.66;;;23.38;31.96
18275;BME280;19470;49.322;7.218;2024-03-08T12:21:42;97929.72;;;25.02;30.66
18275;BME280;19470;49.322;7.218;2024-03-08T12:24:14;97910.53;;;25.45;30.72
18275;BME280;19470;49.322;7.218;2024-03-08T12:26:42;97922.66;;;23.67;33.42
18275;BME280;19470;49.322;7.218;2024-03-08T12:29:21;97915.69;;;24.96;31.47
18275;BME280;19470;49.322;7.218;2024-03-08T12:31:50;97912.72;;;24.03;33.00
18275;BME280;19470;49.322;7.218;2024-03-08T12:34:18;97901.72;;;23.80;32.86
18275;BME280;19470;49.322;7.218;2024-03-08T12:36:46;97913.19;;;21.94;36.08
18275;BME280;19470;49.322;7.218;2024-03-08T12:39:17;97895.97;;;24.44;31.16
18275;BME280;19470;49.322;7.218;2024-03-08T12:41:47;97890.28;;;24.50;31.30
18275;BME280;19470;49.322;7.218;2024-03-08T12:44:14;97903.78;;;22.25;34.64
18275;BME280;19470;49.322;7.218;2024-03-08T12:46:44;97902.69;;;21.14;36.09
18275;BME280;19470;49.322;7.218;2024-03-08T12:49:11;97890.56;;;21.08;36.71
18275;BME280;19470;49.322;7.218;2024-03-08T12:51:38;97876.00;;;23.42;33.55
18275;BME280;19470;49.322;7.218;2024-03-08T12:54:04;97880.13;;;23.95;33.12
18275;BME280;19470;49.322;7.218;2024-03-08T12:56:33;97873.41;;;21.91;35.53
18275;BME280;19470;49.322;7.218;2024-03-08T12:59:00;97865.53;;;23.84;33.56
18275;BME280;19470;49.322;7.218;2024-03-08T13:01:28;97861.25;;;22.71;34.34
18275;BME280;19470;49.322;7.218;2024-03-08T13:03:56;97857.03;;;25.04;32.39
18275;BME280;19470;49.322;7.218;2024-03-08T13:06:24;97850.66;;;22.90;33.27
18275;BME280;19470;49.322;7.218;2024-03-08T13:08:50;97848.06;;;23.22;33.60
18275;BME280;19470;49.322;7.218;2024-03-08T13:11:18;97845.22;;;21.77;35.56